Impacts TAF Board
For situational awareness. Not to be used for flight planning purposes.
IDs:

KLGA - New York/La Guardia, NY, US

Issued at 0223 UTC 10 Dec 2018
Updated at 0415 UTC 10 Dec 2018
Potential Impact None Slight Moderate High
Time<<11/05Z 11/06Z 11/07Z 11/08Z 11/09Z 11/10Z 11/11Z 11/12Z 11/13Z 11/14Z 11/15Z 11/16Z 11/17Z
Type PRVL
VIS >6
CIG --
Cover SKC
FltCat VFR
WX --
WDir 350
WSpd 5
WGst --
Raw TAF
KLGA 100223Z 1002/1106 32005KT P6SM BKN250
  FM100800 34008KT P6SM SCT250
  FM101300 36011KT P6SM SCT250
  FM101800 35009KT P6SM SKC
  FM110000 35005KT P6SM SKC


METAR Board
Radar Display
Forecast Discussion
For situational awareness. Not to be used for flight planning purposes.